createdAt,value
2022-11-16T00:01:46.355Z,5.78
2022-11-16T00:04:13.359Z,5.71
2022-11-16T00:06:40.549Z,6.01
2022-11-16T00:09:23.029Z,6.07
2022-11-16T00:11:52.466Z,6.10
2022-11-16T00:14:21.071Z,5.90
2022-11-16T00:16:48.232Z,5.88
2022-11-16T00:19:15.356Z,5.91
2022-11-16T00:21:45.091Z,5.96
2022-11-16T00:24:17.965Z,5.89
2022-11-16T00:26:45.435Z,5.92
2022-11-16T00:29:21.170Z,5.72
2022-11-16T00:31:49.103Z,5.70
2022-11-16T00:34:16.509Z,5.67
2022-11-16T00:36:43.534Z,5.67
2022-11-16T00:39:14.921Z,5.76
2022-11-16T00:41:42.470Z,5.75
2022-11-16T00:44:10.118Z,5.69
2022-11-16T00:46:37.593Z,5.92
2022-11-16T00:49:08.289Z,5.93
2022-11-16T00:51:36.469Z,5.91
2022-11-16T00:54:05.863Z,6.09
2022-11-16T00:56:36.048Z,6.10
2022-11-16T00:59:03.681Z,6.25
2022-11-16T01:01:30.593Z,6.14
2022-11-16T01:03:57.565Z,5.98
2022-11-16T01:06:24.485Z,5.73
2022-11-16T01:08:51.489Z,5.66
2022-11-16T01:11:37.601Z,5.56
2022-11-16T01:14:08.972Z,5.58
2022-11-16T01:16:36.208Z,5.56
2022-11-16T01:19:05.370Z,5.34
2022-11-16T01:21:33.136Z,5.41
2022-11-16T01:24:00.044Z,5.57
2022-11-16T01:26:26.941Z,5.60
2022-11-16T01:28:53.956Z,5.88
2022-11-16T01:31:21.582Z,5.72
2022-11-16T01:33:50.948Z,5.68
2022-11-16T01:36:22.693Z,5.67
2022-11-16T01:38:50.651Z,5.48
2022-11-16T01:41:25.094Z,5.32
2022-11-16T01:44:05.302Z,5.19
2022-11-16T01:46:41.402Z,5.20
2022-11-16T01:49:16.858Z,5.17
2022-11-16T01:51:49.757Z,5.21
2022-11-16T01:54:17.133Z,5.27
2022-11-16T01:56:56.013Z,4.51
2022-11-16T01:59:48.860Z,5.21
2022-11-16T02:02:19.806Z,5.11
2022-11-16T02:04:48.664Z,5.07
2022-11-16T02:08:00.617Z,4.95
2022-11-16T02:11:06.869Z,4.94
2022-11-16T02:13:59.031Z,4.97
2022-11-16T02:16:31.941Z,5.02
2022-11-16T02:19:33.896Z,5.05
2022-11-16T02:22:19.062Z,5.21
2022-11-16T02:24:57.114Z,5.24
2022-11-16T02:27:40.405Z,5.17
2022-11-16T02:30:07.538Z,4.92
2022-11-16T02:33:00.051Z,4.91
2022-11-16T02:35:33.700Z,4.83
2022-11-16T02:38:40.111Z,4.75
2022-11-16T02:41:12.026Z,4.67
2022-11-16T02:43:44.952Z,4.76
2022-11-16T02:46:30.176Z,4.75
2022-11-16T02:49:02.726Z,4.72
2022-11-16T02:51:31.417Z,4.65
2022-11-16T02:54:04.843Z,4.69
2022-11-16T02:56:41.895Z,4.72
2022-11-16T02:59:13.110Z,4.76
2022-11-16T03:01:52.161Z,4.94
2022-11-16T03:04:32.672Z,5.04
2022-11-16T03:07:03.998Z,5.20
2022-11-16T03:09:35.773Z,5.32
2022-11-16T03:12:10.998Z,5.53
2022-11-16T03:15:01.700Z,5.80
2022-11-16T03:17:44.565Z,5.92
2022-11-16T03:20:27.054Z,6.03
2022-11-16T03:23:05.214Z,6.06
2022-11-16T03:25:40.946Z,5.98
2022-11-16T03:28:20.208Z,5.82
2022-11-16T03:31:02.473Z,5.95
2022-11-16T03:33:34.576Z,5.95
2022-11-16T03:36:10.864Z,6.06
2022-11-16T03:38:40.776Z,6.03
2022-11-16T03:41:09.812Z,6.12
2022-11-16T03:43:39.014Z,6.09
2022-11-16T03:46:07.559Z,5.93
2022-11-16T03:48:40.099Z,6.17
2022-11-16T03:51:18.528Z,6.25
2022-11-16T03:53:45.416Z,6.35
2022-11-16T03:56:12.926Z,6.43
2022-11-16T03:58:39.913Z,6.49
2022-11-16T04:01:07.154Z,6.52
2022-11-16T04:03:34.254Z,6.53
2022-11-16T04:06:19.993Z,6.55
2022-11-16T04:09:05.731Z,6.59
2022-11-16T04:11:51.161Z,6.60
2022-11-16T04:14:39.631Z,6.67
2022-11-16T04:17:31.394Z,6.62
2022-11-16T04:20:16.839Z,6.61
2022-11-16T04:23:29.296Z,6.64
2022-11-16T04:25:56.516Z,6.52
2022-11-16T04:28:35.076Z,6.61
2022-11-16T04:31:23.665Z,6.61
2022-11-16T04:34:25.517Z,6.55
2022-11-16T04:37:14.112Z,6.24
2022-11-16T04:39:41.364Z,6.66
2022-11-16T04:42:19.701Z,6.46
2022-11-16T04:45:07.847Z,6.46
2022-11-16T04:47:54.906Z,6.16
2022-11-16T04:50:27.180Z,5.72
2022-11-16T04:52:54.196Z,5.42
2022-11-16T04:55:21.064Z,5.22
2022-11-16T04:57:49.583Z,5.08
2022-11-16T05:00:17.421Z,5.04
2022-11-16T05:02:45.280Z,5.02
2022-11-16T05:05:12.822Z,4.92
2022-11-16T05:07:43.032Z,4.88
2022-11-16T05:10:16.315Z,4.92
2022-11-16T05:12:43.444Z,5.17
2022-11-16T05:15:11.179Z,5.29
2022-11-16T05:17:40.037Z,5.64
2022-11-16T05:20:31.789Z,5.92
2022-11-16T05:23:03.826Z,6.18
2022-11-16T05:25:36.645Z,6.34
2022-11-16T05:28:06.646Z,6.47
2022-11-16T05:30:37.660Z,6.47
2022-11-16T05:33:05.717Z,6.57
2022-11-16T05:35:37.161Z,6.48
2022-11-16T05:38:04.062Z,6.66
2022-11-16T05:40:34.625Z,6.73
2022-11-16T05:43:01.539Z,6.93
2022-11-16T05:45:32.311Z,7.00
2022-11-16T05:48:00.576Z,7.08
2022-11-16T05:50:27.684Z,7.10
2022-11-16T05:53:06.411Z,7.03
2022-11-16T05:55:35.872Z,7.22
2022-11-16T05:58:02.855Z,7.48
2022-11-16T06:00:31.670Z,7.46
2022-11-16T06:03:00.020Z,7.51
2022-11-16T06:05:30.912Z,7.48
2022-11-16T06:07:59.261Z,7.29
2022-11-16T06:10:26.341Z,6.98
2022-11-16T06:12:54.229Z,7.16
2022-11-16T06:15:21.331Z,7.32
2022-11-16T06:17:48.243Z,7.44
2022-11-16T06:20:18.493Z,7.38
2022-11-16T06:22:47.145Z,7.27
2022-11-16T06:25:14.137Z,7.27
2022-11-16T06:27:43.729Z,7.43
2022-11-16T06:30:13.795Z,7.33
2022-11-16T06:32:41.637Z,7.41
2022-11-16T06:35:09.603Z,7.52
2022-11-16T06:37:37.682Z,7.55
2022-11-16T06:40:06.647Z,7.53
2022-11-16T06:42:37.036Z,7.55
2022-11-16T06:45:04.544Z,7.60
2022-11-16T06:47:37.756Z,7.51
2022-11-16T06:50:05.422Z,7.56
2022-11-16T06:52:33.989Z,7.47
2022-11-16T06:55:01.350Z,7.13
2022-11-16T06:57:35.588Z,7.12
2022-11-16T07:00:04.576Z,6.94
2022-11-16T07:02:33.834Z,7.07
2022-11-16T07:05:03.904Z,6.74
2022-11-16T07:07:33.301Z,6.69
2022-11-16T07:10:02.934Z,6.76
2022-11-16T07:12:31.385Z,6.70
2022-11-16T07:14:59.250Z,7.06
2022-11-16T07:17:29.743Z,7.33
2022-11-16T07:20:02.597Z,7.72
2022-11-16T07:22:34.589Z,7.86
2022-11-16T07:25:03.242Z,7.95
2022-11-16T07:27:30.215Z,8.05
2022-11-16T07:29:59.408Z,8.30
2022-11-16T07:32:58.240Z,8.60
2022-11-16T07:35:45.496Z,8.80
2022-11-16T07:38:17.727Z,8.88
2022-11-16T07:40:46.112Z,9.00
2022-11-16T07:43:16.483Z,9.08
2022-11-16T07:49:09.869Z,9.33
2022-11-16T07:51:51.238Z,9.36
2022-11-16T07:54:44.318Z,9.40
2022-11-16T07:57:11.392Z,9.44
2022-11-16T07:59:41.198Z,9.32
2022-11-16T08:02:10.363Z,9.53
2022-11-16T08:04:40.295Z,9.62
2022-11-16T08:07:09.156Z,9.64
2022-11-16T08:09:43.633Z,9.75
2022-11-16T08:12:15.348Z,9.59
2022-11-16T08:14:43.352Z,9.67
2022-11-16T08:17:12.275Z,9.81
2022-11-16T08:19:40.416Z,9.73
2022-11-16T08:22:09.732Z,9.97
2022-11-16T08:24:38.766Z,9.89
2022-11-16T08:27:05.787Z,9.87
2022-11-16T08:29:36.032Z,9.73
2022-11-16T08:32:05.421Z,9.57
2022-11-16T08:34:34.993Z,9.71
2022-11-16T08:37:03.989Z,9.75
2022-11-16T08:39:43.608Z,9.95
2022-11-16T08:42:10.666Z,9.92
2022-11-16T08:44:38.972Z,10.04
2022-11-16T08:47:10.881Z,10.18
2022-11-16T08:49:48.283Z,10.25
2022-11-16T08:52:30.428Z,10.43
2022-11-16T08:54:58.777Z,10.63
2022-11-16T08:57:26.012Z,10.41
2022-11-16T08:59:57.734Z,10.40
2022-11-16T09:02:25.781Z,10.65
2022-11-16T09:04:54.512Z,10.88
2022-11-16T09:07:22.673Z,11.08
2022-11-16T09:09:49.770Z,11.09
2022-11-16T09:15:01.751Z,11.36
2022-11-16T09:17:30.163Z,11.44
2022-11-16T09:19:57.115Z,11.32
2022-11-16T09:22:24.156Z,11.40
2022-11-16T09:24:51.179Z,11.40
2022-11-16T09:27:18.113Z,11.43
2022-11-16T09:29:44.934Z,11.59
2022-11-16T09:32:16.011Z,11.35
2022-11-16T09:35:37.259Z,11.60
2022-11-16T09:38:05.805Z,11.48
2022-11-16T09:40:42.278Z,11.65
2022-11-16T09:43:18.329Z,11.68
2022-11-16T09:46:29.691Z,11.99
2022-11-16T09:49:00.409Z,12.16
2022-11-16T09:54:27.622Z,12.48
2022-11-16T09:56:58.971Z,12.73
2022-11-16T09:59:51.148Z,12.79
2022-11-16T10:02:24.298Z,13.02
2022-11-16T10:05:17.767Z,12.90
2022-11-16T10:07:49.282Z,13.04
2022-11-16T10:10:34.938Z,13.00
2022-11-16T10:13:23.693Z,13.01
2022-11-16T10:15:53.624Z,13.06
2022-11-16T10:18:29.543Z,13.18
2022-11-16T10:21:13.994Z,13.41
2022-11-16T10:24:24.059Z,13.48
2022-11-16T10:26:51.534Z,13.58
2022-11-16T10:29:39.925Z,13.49
2022-11-16T10:32:28.324Z,13.70
2022-11-16T10:34:55.334Z,13.79
2022-11-16T10:37:27.783Z,13.88
2022-11-16T10:39:54.693Z,14.03
2022-11-16T10:42:35.808Z,14.04
2022-11-16T10:45:15.478Z,14.01
2022-11-16T10:47:51.225Z,14.11
2022-11-16T10:50:31.919Z,14.20
2022-11-16T10:53:01.314Z,14.16
2022-11-16T10:55:31.035Z,14.08
2022-11-16T10:58:03.005Z,14.27
2022-11-16T11:00:37.856Z,14.43
2022-11-16T11:03:06.991Z,14.40
2022-11-16T11:05:39.250Z,14.68
2022-11-16T11:08:11.437Z,14.67
2022-11-16T11:13:27.016Z,14.69
2022-11-16T11:16:17.992Z,14.62
2022-11-16T11:18:46.951Z,14.61
2022-11-16T11:21:19.460Z,14.80
2022-11-16T11:23:52.630Z,14.66
2022-11-16T11:26:42.929Z,14.66
2022-11-16T11:29:28.194Z,14.88
2022-11-16T11:32:00.142Z,15.05
2022-11-16T11:34:44.126Z,15.04
2022-11-16T11:37:19.887Z,14.99
2022-11-16T11:39:46.856Z,14.88
2022-11-16T11:42:13.693Z,14.99
2022-11-16T11:44:49.883Z,15.00
2022-11-16T11:47:58.791Z,15.03
2022-11-16T11:50:49.351Z,15.22
2022-11-16T11:53:39.943Z,15.38
2022-11-16T11:56:10.691Z,15.37
2022-11-16T11:58:41.161Z,15.48
2022-11-16T12:01:29.510Z,15.50
2022-11-16T12:03:56.329Z,15.28
2022-11-16T12:06:31.495Z,15.26
2022-11-16T12:09:28.209Z,15.33
2022-11-16T12:12:16.528Z,15.36
2022-11-16T12:15:18.011Z,15.48
2022-11-16T12:17:53.893Z,15.24
2022-11-16T12:20:30.121Z,15.44
2022-11-16T12:23:17.177Z,15.48
2022-11-16T12:25:55.005Z,15.49
2022-11-16T12:28:22.253Z,15.45
2022-11-16T12:31:22.780Z,15.56
2022-11-16T12:34:16.126Z,15.61
2022-11-16T12:37:21.343Z,15.41
2022-11-16T12:40:38.157Z,15.40
2022-11-16T12:43:18.274Z,15.48
2022-11-16T12:46:00.829Z,15.58
2022-11-16T12:48:50.936Z,15.48
2022-11-16T12:51:49.058Z,15.54
2022-11-16T12:54:18.810Z,15.55
2022-11-16T12:57:22.767Z,15.49
2022-11-16T13:00:12.096Z,15.48
2022-11-16T13:03:00.739Z,15.39
2022-11-16T13:05:54.452Z,15.43
2022-11-16T13:08:41.527Z,15.34
2022-11-16T13:11:18.830Z,15.21
2022-11-16T13:13:53.387Z,15.39
2022-11-16T13:16:24.007Z,15.19
2022-11-16T13:18:52.315Z,15.26
2022-11-16T13:21:35.706Z,15.09
2022-11-16T13:24:35.047Z,15.32
2022-11-16T13:27:39.357Z,15.32
2022-11-16T13:30:27.690Z,15.27
2022-11-16T13:33:22.482Z,15.02
2022-11-16T13:35:49.436Z,14.94
2022-11-16T13:38:54.473Z,15.13
2022-11-16T13:41:34.464Z,15.08
2022-11-16T13:44:20.454Z,15.11
2022-11-16T13:46:55.727Z,14.87
2022-11-16T13:49:28.782Z,14.94
2022-11-16T13:52:21.950Z,14.86
2022-11-16T13:54:53.688Z,14.79
2022-11-16T13:57:49.270Z,14.73
2022-11-16T14:00:33.610Z,14.78
2022-11-16T14:03:16.092Z,14.67
2022-11-16T14:05:44.295Z,14.70
2022-11-16T14:08:20.041Z,14.54
2022-11-16T14:10:52.879Z,14.32
2022-11-16T14:13:50.328Z,14.19
2022-11-16T14:16:17.720Z,14.10
2022-11-16T14:18:51.008Z,14.08
2022-11-16T14:21:20.619Z,14.01
2022-11-16T14:24:12.369Z,14.09
2022-11-16T14:27:16.974Z,13.74
2022-11-16T14:30:06.011Z,13.85
2022-11-16T14:32:47.225Z,13.68
2022-11-16T14:35:26.585Z,13.78
2022-11-16T14:41:20.993Z,13.51
2022-11-16T14:43:54.221Z,13.56
2022-11-16T14:49:48.802Z,13.43
2022-11-16T14:52:18.761Z,13.45
2022-11-16T14:54:55.349Z,13.41
2022-11-16T14:57:24.295Z,13.34
2022-11-16T15:00:09.656Z,12.97
2022-11-16T15:02:37.461Z,13.24
2022-11-16T15:05:06.955Z,13.15
2022-11-16T15:07:34.880Z,13.01
2022-11-16T15:10:02.110Z,13.08
2022-11-16T15:12:44.077Z,13.12
2022-11-16T15:15:10.926Z,12.99
2022-11-16T15:17:44.365Z,12.98
2022-11-16T15:20:19.837Z,12.87
2022-11-16T15:22:51.151Z,12.93
2022-11-16T15:25:34.440Z,12.84
2022-11-16T15:28:17.078Z,12.78
2022-11-16T15:30:51.036Z,12.71
2022-11-16T15:33:45.280Z,12.74
2022-11-16T15:36:31.477Z,12.68
2022-11-16T15:39:02.114Z,12.69
2022-11-16T15:41:30.234Z,12.66
2022-11-16T15:44:14.118Z,12.68
2022-11-16T15:46:47.357Z,12.74
2022-11-16T15:49:38.604Z,12.76
2022-11-16T15:52:05.925Z,12.83
2022-11-16T15:54:54.061Z,12.84
2022-11-16T15:57:23.485Z,12.71
2022-11-16T15:59:57.193Z,12.72
2022-11-16T16:02:29.839Z,12.82
2022-11-16T16:04:56.962Z,12.72
2022-11-16T16:07:42.613Z,12.96
2022-11-16T16:10:21.226Z,12.83
2022-11-16T16:12:52.914Z,12.81
2022-11-16T16:15:36.915Z,12.80
2022-11-16T16:18:40.639Z,12.72
2022-11-16T16:21:09.119Z,12.52
2022-11-16T16:23:51.525Z,12.29
2022-11-16T16:26:18.427Z,12.27
2022-11-16T16:28:47.213Z,12.29
2022-11-16T16:31:18.382Z,12.15
2022-11-16T16:33:45.408Z,12.22
2022-11-16T16:36:13.742Z,12.06
2022-11-16T16:38:43.996Z,12.01
2022-11-16T16:41:23.793Z,11.97
2022-11-16T16:43:54.157Z,11.82
2022-11-16T16:46:21.832Z,11.77
2022-11-16T16:48:49.179Z,11.92
2022-11-16T16:51:16.021Z,12.15
2022-11-16T16:53:42.880Z,12.19
2022-11-16T16:56:19.763Z,12.12
2022-11-16T16:58:58.819Z,12.17
2022-11-16T17:01:27.775Z,12.10
2022-11-16T17:03:56.162Z,12.05
2022-11-16T17:06:23.498Z,11.89
2022-11-16T17:08:51.313Z,11.92
2022-11-16T17:11:18.193Z,11.74
2022-11-16T17:13:45.702Z,11.67
2022-11-16T17:16:13.122Z,11.57
2022-11-16T17:18:40.951Z,11.67
2022-11-16T17:21:09.695Z,11.60
2022-11-16T17:23:37.634Z,11.64
2022-11-16T17:26:06.549Z,11.59
2022-11-16T17:28:34.004Z,11.67
2022-11-16T17:31:09.920Z,11.65
2022-11-16T17:33:41.680Z,11.68
2022-11-16T17:36:15.134Z,11.59
2022-11-16T17:38:42.090Z,11.59
2022-11-16T17:41:19.395Z,11.58
2022-11-16T17:43:47.247Z,11.41
2022-11-16T17:46:19.175Z,11.40
2022-11-16T17:48:47.835Z,11.22
2022-11-16T17:51:18.104Z,11.03
2022-11-16T17:53:45.671Z,11.07
2022-11-16T17:56:14.592Z,11.12
2022-11-16T17:58:41.778Z,11.18
2022-11-16T18:01:08.724Z,11.35
2022-11-16T18:03:37.366Z,10.98
2022-11-16T18:06:15.983Z,10.72
2022-11-16T18:08:45.653Z,10.71
2022-11-16T18:11:21.113Z,10.71
2022-11-16T18:13:51.788Z,10.54
2022-11-16T18:16:21.126Z,10.61
2022-11-16T18:18:50.214Z,10.64
2022-11-16T18:21:20.781Z,10.62
2022-11-16T18:23:48.132Z,10.68
2022-11-16T18:26:21.127Z,10.77
2022-11-16T18:28:49.411Z,10.71
2022-11-16T18:31:18.779Z,10.48
2022-11-16T18:33:47.107Z,10.45
2022-11-16T18:36:19.068Z,10.32
2022-11-16T18:38:47.689Z,10.41
2022-11-16T18:41:17.218Z,10.64
2022-11-16T18:43:52.688Z,10.61
2022-11-16T18:46:24.118Z,10.65
2022-11-16T18:48:51.664Z,10.83
2022-11-16T18:51:20.942Z,10.84
2022-11-16T18:53:48.877Z,10.82
2022-11-16T18:56:16.486Z,10.81
2022-11-16T18:58:52.330Z,10.73
2022-11-16T19:01:22.835Z,10.57
2022-11-16T19:03:51.181Z,10.48
2022-11-16T19:06:18.461Z,10.54
2022-11-16T19:08:53.740Z,10.49
2022-11-16T19:11:22.738Z,10.46
2022-11-16T19:14:04.180Z,10.37
2022-11-16T19:16:31.773Z,10.34
2022-11-16T19:18:59.960Z,10.34
2022-11-16T19:21:27.853Z,10.36
2022-11-16T19:23:56.228Z,10.49
2022-11-16T19:26:26.466Z,10.59
2022-11-16T19:28:54.162Z,10.43
2022-11-16T19:31:27.008Z,10.48
2022-11-16T19:34:02.249Z,10.47
2022-11-16T19:36:30.606Z,10.40
2022-11-16T19:38:57.824Z,10.35
2022-11-16T19:41:25.996Z,10.39
2022-11-16T19:43:59.073Z,10.12
2022-11-16T19:46:32.578Z,10.28
2022-11-16T19:49:00.472Z,10.22
2022-11-16T19:51:29.333Z,10.32
2022-11-16T19:53:56.978Z,10.35
2022-11-16T19:56:25.338Z,10.29
2022-11-16T19:58:52.749Z,10.35
2022-11-16T20:01:28.742Z,10.10
2022-11-16T20:03:57.944Z,9.98
2022-11-16T20:06:29.198Z,9.97
2022-11-16T20:09:03.725Z,9.98
2022-11-16T20:11:34.112Z,10.03
2022-11-16T20:14:03.049Z,10.05
2022-11-16T20:16:38.159Z,9.93
2022-11-16T20:19:07.532Z,9.95
2022-11-16T20:21:41.997Z,9.99
2022-11-16T20:24:14.419Z,10.06
2022-11-16T20:26:44.758Z,10.13
2022-11-16T20:29:12.935Z,10.18
2022-11-16T20:31:42.743Z,10.10
2022-11-16T20:34:14.198Z,10.08
2022-11-16T20:36:43.780Z,10.07
2022-11-16T20:39:16.238Z,10.00
2022-11-16T20:41:44.287Z,9.95
2022-11-16T20:44:18.299Z,10.03
2022-11-16T20:46:45.425Z,10.00
2022-11-16T20:49:12.692Z,10.13
2022-11-16T20:51:39.774Z,9.81
2022-11-16T20:54:07.100Z,9.32
2022-11-16T20:56:34.405Z,9.20
2022-11-16T20:59:01.919Z,8.95
2022-11-16T21:01:31.939Z,8.88
2022-11-16T21:04:05.983Z,8.98
2022-11-16T21:06:33.725Z,9.15
2022-11-16T21:09:01.025Z,9.27
2022-11-16T21:11:51.266Z,9.40
2022-11-16T21:14:19.434Z,9.47
2022-11-16T21:16:46.401Z,9.53
2022-11-16T21:19:13.584Z,9.68
2022-11-16T21:21:40.973Z,9.73
2022-11-16T21:24:09.011Z,9.77
2022-11-16T21:26:37.118Z,9.67
2022-11-16T21:29:04.640Z,9.65
2022-11-16T21:31:35.153Z,9.63
2022-11-16T21:34:02.899Z,9.64
2022-11-16T21:36:31.430Z,9.83
2022-11-16T21:38:58.641Z,9.79
2022-11-16T21:41:26.146Z,9.91
2022-11-16T21:43:53.419Z,10.09
2022-11-16T21:46:24.951Z,10.12
2022-11-16T21:48:53.733Z,9.92
2022-11-16T21:51:22.386Z,9.93
2022-11-16T21:53:49.291Z,9.80
2022-11-16T21:56:19.286Z,9.67
2022-11-16T21:58:46.598Z,9.70
2022-11-16T22:01:16.052Z,9.73
2022-11-16T22:03:44.746Z,9.63
2022-11-16T22:06:33.000Z,9.65
2022-11-16T22:09:00.181Z,9.65
2022-11-16T22:11:27.047Z,9.58
2022-11-16T22:13:53.850Z,9.48
2022-11-16T22:16:23.501Z,9.28
2022-11-16T22:18:51.101Z,9.16
2022-11-16T22:21:17.939Z,9.06
2022-11-16T22:23:45.073Z,9.06
2022-11-16T22:26:13.473Z,9.18
2022-11-16T22:28:40.725Z,9.37
2022-11-16T22:31:14.844Z,9.45
2022-11-16T22:33:42.272Z,9.63
2022-11-16T22:36:10.598Z,9.53
2022-11-16T22:38:38.036Z,9.51
2022-11-16T22:41:05.376Z,9.55
2022-11-16T22:43:32.869Z,9.72
2022-11-16T22:46:02.409Z,9.69
2022-11-16T22:48:36.586Z,9.50
2022-11-16T22:51:27.306Z,9.79
2022-11-16T22:53:59.208Z,9.94
2022-11-16T22:56:26.858Z,9.94
2022-11-16T22:58:54.190Z,10.02
2022-11-16T23:01:21.474Z,10.04
2022-11-16T23:03:48.802Z,9.74
2022-11-16T23:06:16.721Z,9.71
2022-11-16T23:08:43.663Z,9.62
2022-11-16T23:11:32.904Z,9.74
2022-11-16T23:14:18.791Z,9.53
2022-11-16T23:16:47.246Z,9.50
2022-11-16T23:19:35.337Z,9.63
2022-11-16T23:22:21.293Z,9.49
2022-11-16T23:25:06.962Z,9.62
2022-11-16T23:27:41.690Z,9.61
2022-11-16T23:30:12.760Z,9.55
2022-11-16T23:32:41.454Z,9.68
2022-11-16T23:35:09.203Z,9.71
2022-11-16T23:37:53.598Z,9.78
2022-11-16T23:40:22.077Z,9.79
2022-11-16T23:43:07.401Z,9.84
2022-11-16T23:45:34.256Z,9.90
2022-11-16T23:48:01.160Z,9.92
2022-11-16T23:50:28.153Z,9.82
2022-11-16T23:52:55.004Z,9.68
2022-11-16T23:55:23.206Z,9.79
2022-11-16T23:57:50.917Z,10.02
